Time;durP1;ratioP1;P1;durP2;ratioP2;P2;SDS_P1;SDS_P2;PMS_P1;PMS_P2;Temp;Humidity;BMP_temperature;BMP_pressure;BME280_temperature;BME280_humidity;BME280_pressure;Samples;Min_cycle;Max_cycle;Signal;HPM_P1;HPM_P2
2023/03/04 00:00:26;;;;;;;41.8;24.4;;;;;;;;;;;;;
2023/03/04 00:02:51;;;;;;;41.7;23.5;;;;;;;;;;;;;
2023/03/04 00:05:24;;;;;;;42.4;25.6;;;;;;;;;;;;;
2023/03/04 00:07:49;;;;;;;48.9;27;;;;;;;;;;;;;
2023/03/04 00:10:18;;;;;;;45.2;26.5;;;;;;;;;;;;;
2023/03/04 00:12:51;;;;;;;44;24.4;;;;;;;;;;;;;
2023/03/04 00:15:18;;;;;;;43.3;24.4;;;;;;;;;;;;;
2023/03/04 00:17:46;;;;;;;44;23.6;;;;;;;;;;;;;
2023/03/04 00:20:12;;;;;;;42.5;23.6;;;;;;;;;;;;;
2023/03/04 00:22:38;;;;;;;44;24.7;;;;;;;;;;;;;
2023/03/04 00:25:04;;;;;;;42.8;23.5;;;;;;;;;;;;;
2023/03/04 00:27:29;;;;;;;41.3;22.9;;;;;;;;;;;;;
2023/03/04 00:29:57;;;;;;;41.3;22.8;;;;;;;;;;;;;
2023/03/04 00:32:23;;;;;;;41;22.8;;;;;;;;;;;;;
2023/03/04 00:34:52;;;;;;;42;22.2;;;;;;;;;;;;;
2023/03/04 00:37:19;;;;;;;39.7;22.4;;;;;;;;;;;;;
2023/03/04 00:39:44;;;;;;;39.9;22.4;;;;;;;;;;;;;
2023/03/04 00:42:13;;;;;;;38.1;22.4;;;;;;;;;;;;;
2023/03/04 00:44:38;;;;;;;36.7;21.1;;;;;;;;;;;;;
2023/03/04 00:47:08;;;;;;;39.9;22.5;;;;;;;;;;;;;
2023/03/04 00:49:36;;;;;;;40.1;22.3;;;;;;;;;;;;;
2023/03/04 00:52:00;;;;;;;43.8;23.5;;;;;;;;;;;;;
2023/03/04 00:54:30;;;;;;;40.7;22.9;;;;;;;;;;;;;
2023/03/04 00:56:58;;;;;;;39.4;22.5;;;;;;;;;;;;;
2023/03/04 00:59:23;;;;;;;41;22.9;;;;;;;;;;;;;
2023/03/04 01:01:51;;;;;;;40.2;22.5;;;;;;;;;;;;;
2023/03/04 01:04:16;;;;;;;40.8;21.8;;;;;;;;;;;;;
2023/03/04 01:06:44;;;;;;;38.1;21.6;;;;;;;;;;;;;
2023/03/04 01:09:09;;;;;;;36.6;20.5;;;;;;;;;;;;;
2023/03/04 01:11:34;;;;;;;37.4;21.6;;;;;;;;;;;;;
2023/03/04 01:14:00;;;;;;;36.3;20.4;;;;;;;;;;;;;
2023/03/04 01:16:25;;;;;;;39.7;21.1;;;;;;;;;;;;;
2023/03/04 01:19:06;;;;;;;36.4;21.4;;;;;;;;;;;;;
2023/03/04 01:21:35;;;;;;;37.8;21.1;;;;;;;;;;;;;
2023/03/04 01:24:00;;;;;;;36.1;20.3;;;;;;;;;;;;;
2023/03/04 01:26:27;;;;;;;34.7;20.7;;;;;;;;;;;;;
2023/03/04 01:28:55;;;;;;;40.2;20.9;;;;;;;;;;;;;
2023/03/04 01:31:25;;;;;;;35.8;20;;;;;;;;;;;;;
2023/03/04 01:33:50;;;;;;;36;20;;;;;;;;;;;;;
2023/03/04 01:36:17;;;;;;;34.9;18.8;;;;;;;;;;;;;
2023/03/04 01:38:42;;;;;;;33.3;18.7;;;;;;;;;;;;;
2023/03/04 01:41:07;;;;;;;32.3;19;;;;;;;;;;;;;
2023/03/04 01:43:32;;;;;;;30.9;18.6;;;;;;;;;;;;;
2023/03/04 01:46:01;;;;;;;33.5;19.5;;;;;;;;;;;;;
2023/03/04 01:48:26;;;;;;;31.6;19.5;;;;;;;;;;;;;
2023/03/04 01:50:51;;;;;;;30.3;18.8;;;;;;;;;;;;;
2023/03/04 01:53:18;;;;;;;34.8;19.3;;;;;;;;;;;;;
2023/03/04 01:55:43;;;;;;;32;19.2;;;;;;;;;;;;;
2023/03/04 01:58:09;;;;;;;30.8;17.8;;;;;;;;;;;;;
2023/03/04 02:00:36;;;;;;;29.2;17.6;;;;;;;;;;;;;
2023/03/04 02:03:02;;;;;;;32.8;18.1;;;;;;;;;;;;;
2023/03/04 02:05:26;;;;;;;29.3;17.5;;;;;;;;;;;;;
2023/03/04 02:07:53;;;;;;;29.6;18.2;;;;;;;;;;;;;
2023/03/04 02:10:18;;;;;;;31.8;18.9;;;;;;;;;;;;;
2023/03/04 02:12:46;;;;;;;31.3;18.7;;;;;;;;;;;;;
2023/03/04 02:15:11;;;;;;;36.6;20.5;;;;;;;;;;;;;
2023/03/04 02:17:38;;;;;;;39.9;21.6;;;;;;;;;;;;;
2023/03/04 02:20:03;;;;;;;36;20.6;;;;;;;;;;;;;
2023/03/04 02:22:28;;;;;;;36.1;20.7;;;;;;;;;;;;;
2023/03/04 02:24:53;;;;;;;41;20.8;;;;;;;;;;;;;
2023/03/04 02:27:19;;;;;;;35.8;20;;;;;;;;;;;;;
2023/03/04 02:29:45;;;;;;;34.9;18.7;;;;;;;;;;;;;
2023/03/04 02:32:11;;;;;;;35.5;17.9;;;;;;;;;;;;;
2023/03/04 02:34:38;;;;;;;32.4;17.7;;;;;;;;;;;;;
2023/03/04 02:37:03;;;;;;;35.7;18.6;;;;;;;;;;;;;
2023/03/04 02:39:30;;;;;;;32.5;18.3;;;;;;;;;;;;;
2023/03/04 02:41:55;;;;;;;29.6;17.8;;;;;;;;;;;;;
2023/03/04 02:44:22;;;;;;;34.1;18.9;;;;;;;;;;;;;
2023/03/04 02:46:47;;;;;;;31.9;18;;;;;;;;;;;;;
2023/03/04 02:49:13;;;;;;;32.9;18.1;;;;;;;;;;;;;
2023/03/04 02:51:38;;;;;;;31.9;18;;;;;;;;;;;;;
2023/03/04 02:54:05;;;;;;;28.8;16.5;;;;;;;;;;;;;
2023/03/04 02:56:31;;;;;;;28.4;16.4;;;;;;;;;;;;;
2023/03/04 02:58:56;;;;;;;29.3;17.4;;;;;;;;;;;;;
2023/03/04 03:01:22;;;;;;;30.3;17;;;;;;;;;;;;;
2023/03/04 03:03:47;;;;;;;28.3;16.9;;;;;;;;;;;;;
2023/03/04 03:06:13;;;;;;;25.8;15.4;;;;;;;;;;;;;
2023/03/04 03:08:39;;;;;;;28.8;16.8;;;;;;;;;;;;;
2023/03/04 03:11:05;;;;;;;29.1;17.5;;;;;;;;;;;;;
2023/03/04 03:13:30;;;;;;;29.9;17.5;;;;;;;;;;;;;
2023/03/04 03:15:55;;;;;;;28.6;17.7;;;;;;;;;;;;;
2023/03/04 03:18:21;;;;;;;33.1;17.8;;;;;;;;;;;;;
2023/03/04 03:20:46;;;;;;;29.6;16.3;;;;;;;;;;;;;
2023/03/04 03:23:13;;;;;;;31.4;16.8;;;;;;;;;;;;;
2023/03/04 03:25:38;;;;;;;27.7;16.5;;;;;;;;;;;;;
2023/03/04 03:28:04;;;;;;;28.6;16.2;;;;;;;;;;;;;
2023/03/04 03:30:29;;;;;;;28.5;16.7;;;;;;;;;;;;;
2023/03/04 03:32:55;;;;;;;27.3;15.8;;;;;;;;;;;;;
2023/03/04 03:35:21;;;;;;;25.1;15.6;;;;;;;;;;;;;
2023/03/04 03:37:47;;;;;;;27.6;15.6;;;;;;;;;;;;;
2023/03/04 03:40:12;;;;;;;28.1;16.2;;;;;;;;;;;;;
2023/03/04 03:42:41;;;;;;;27.6;15.6;;;;;;;;;;;;;
2023/03/04 03:45:07;;;;;;;27;16;;;;;;;;;;;;;
2023/03/04 03:47:33;;;;;;;27.5;15.4;;;;;;;;;;;;;
2023/03/04 03:49:58;;;;;;;28.6;15.7;;;;;;;;;;;;;
2023/03/04 03:52:24;;;;;;;29.1;16.3;;;;;;;;;;;;;
2023/03/04 03:54:49;;;;;;;27.5;16.3;;;;;;;;;;;;;
2023/03/04 03:57:14;;;;;;;27;16.7;;;;;;;;;;;;;
2023/03/04 03:59:39;;;;;;;27.6;15.4;;;;;;;;;;;;;
2023/03/04 04:02:37;;;;;;;28.7;16.3;;;;;;;1.17;94.90137;939.9109;;;;
2023/03/04 04:05:02;;;;;;;26;16.3;;;;;;;1.08;95.06152;939.8984;;;;
2023/03/04 04:07:27;;;;;;;26.8;15.1;;;;;;;1.1;95.07715;939.957;;;;
2023/03/04 04:09:56;;;;;;;29;16.3;;;;;;;1.17;94.53418;939.861;;;;
2023/03/04 04:12:21;;;;;;;26.6;15.4;;;;;;;1.21;93.88379;939.8833;;;;
2023/03/04 04:14:50;;;;;;;27.6;15.6;;;;;;;1.25;92.85254;939.8953;;;;
2023/03/04 04:17:16;;;;;;;27.2;16.5;;;;;;;1.2;92.43164;939.9263;;;;
2023/03/04 04:19:41;;;;;;;28.8;16.8;;;;;;;1.1;92.7207;939.9257;;;;
2023/03/04 04:22:07;;;;;;;35.6;19;;;;;;;0.97;94.09961;939.9232;;;;
2023/03/04 04:24:33;;;;;;;32;18.5;;;;;;;1.03;94.51563;940.0008;;;;
2023/03/04 04:26:58;;;;;;;30.9;17.3;;;;;;;1.05;94.28516;939.9989;;;;
2023/03/04 04:29:31;;;;;;;29.9;17.2;;;;;;;1.01;94.07617;939.8943;;;;
2023/03/04 04:31:57;;;;;;;28.8;16.8;;;;;;;1.01;94.0293;939.8699;;;;
2023/03/04 04:34:26;;;;;;;28.7;16.2;;;;;;;1;93.89551;939.8845;;;;
2023/03/04 04:36:51;;;;;;;30.2;16.8;;;;;;;0.96;93.66016;939.983;;;;
2023/03/04 04:39:16;;;;;;;31.5;16.9;;;;;;;0.89;94.07031;939.9993;;;;
2023/03/04 04:41:41;;;;;;;28.9;17.1;;;;;;;0.9;94.29492;939.9866;;;;
2023/03/04 04:44:11;;;;;;;28.1;16.4;;;;;;;0.9;94.3623;939.9662;;;;
2023/03/04 04:46:36;;;;;;;27.5;16.3;;;;;;;0.83;94.78125;939.9337;;;;
2023/03/04 04:49:05;;;;;;;30.2;18.3;;;;;;;0.8;94.9541;939.9459;;;;
2023/03/04 04:51:30;;;;;;;31.1;17.7;;;;;;;0.78;95.13965;939.9397;;;;
2023/03/04 04:53:57;;;;;;;29.8;18.2;;;;;;;0.79;95.26465;939.9185;;;;
2023/03/04 04:56:23;;;;;;;29.4;17.6;;;;;;;0.81;95.03223;939.9484;;;;
2023/03/04 04:58:54;;;;;;;31.7;17.8;;;;;;;0.81;94.81055;939.9078;;;;
2023/03/04 05:01:19;;;;;;;28.6;17.4;;;;;;;0.74;94.82813;939.9684;;;;
2023/03/04 05:03:44;;;;;;;25.3;15.7;;;;;;;0.7;95.00977;939.9698;;;;
2023/03/04 05:06:10;;;;;;;31.4;16.4;;;;;;;0.67;95.0127;939.9468;;;;
2023/03/04 05:08:40;;;;;;;25.9;15.5;;;;;;;0.65;95.16504;939.9467;;;;
2023/03/04 05:14:35;;;;;;;28;16.3;;;;;;;0.6;94.99902;939.9056;;;;
2023/03/04 05:17:00;;;;;;;25.9;15.3;;;;;;;0.62;95.14746;939.902;;;;
2023/03/04 05:19:29;;;;;;;27.7;15.9;;;;;;;0.64;95.05371;939.9519;;;;
2023/03/04 05:21:54;;;;;;;25.4;15.5;;;;;;;0.63;95.08301;939.822;;;;
2023/03/04 05:24:23;;;;;;;26.2;14.5;;;;;;;0.56;95.25586;939.8755;;;;
2023/03/04 05:27:57;;;;;;;24.9;14;;;;;;;0.6;95.27734;939.8624;;;;
2023/03/04 05:30:29;;;;;;;22.9;14.6;;;;;;;0.64;94.91992;939.851;;;;
2023/03/04 05:32:58;;;;;;;23.6;14;;;;;;;0.64;94.85254;939.8516;;;;
2023/03/04 05:35:23;;;;;;;24.5;14.1;;;;;;;0.58;94.92578;939.9063;;;;
2023/03/04 05:37:48;;;;;;;23.3;14.2;;;;;;;0.64;94.86328;939.8531;;;;
2023/03/04 05:40:14;;;;;;;23.4;13.5;;;;;;;0.65;94.64063;939.8589;;;;
2023/03/04 05:42:45;;;;;;;21.3;13.1;;;;;;;0.6;94.73047;939.838;;;;
2023/03/04 05:45:14;;;;;;;24.2;13.9;;;;;;;0.65;94.98633;939.8521;;;;
2023/03/04 05:47:39;;;;;;;25.8;15.2;;;;;;;0.66;95.27832;939.8312;;;;
2023/03/04 05:50:06;;;;;;;24.1;14.7;;;;;;;0.73;95.36426;939.8491;;;;
2023/03/04 05:52:32;;;;;;;25.7;15;;;;;;;0.78;94.93848;939.8011;;;;
2023/03/04 05:54:57;;;;;;;22.6;13.8;;;;;;;0.76;94.78809;939.8236;;;;
2023/03/04 05:57:24;;;;;;;21.8;13.6;;;;;;;0.77;94.38965;939.8868;;;;
2023/03/04 05:59:54;;;;;;;25.2;15.1;;;;;;;0.76;94.10645;939.8932;;;;
2023/03/04 06:02:19;;;;;;;21.2;14.6;;;;;;;0.75;93.97266;939.9266;;;;
2023/03/04 06:04:46;;;;;;;23.4;15.3;;;;;;;0.69;94.10645;939.9161;;;;
2023/03/04 06:07:11;;;;;;;24.3;15.2;;;;;;;0.67;94.63574;939.9745;;;;
2023/03/04 06:09:39;;;;;;;28.2;17.6;;;;;;;0.78;94.75977;939.9936;;;;
2023/03/04 06:12:04;;;;;;;35.2;22.4;;;;;;;0.9;94.26367;940.0392;;;;
2023/03/04 06:15:42;;;;;;;30.2;18.1;;;;;;;0.99;93.47656;940.0927;;;;
2023/03/04 06:18:11;;;;;;;24.9;15.8;;;;;;;1.01;93.11328;940.08;;;;
2023/03/04 06:20:45;;;;;;;22.6;13.8;;;;;;;1.09;93.47754;940.1401;;;;
2023/03/04 06:23:18;;;;;;;24.8;15;;;;;;;1.24;93.31934;940.0557;;;;
2023/03/04 06:25:51;;;;;;;22.7;14.3;;;;;;;1.41;93.35938;940.1652;;;;
2023/03/04 06:28:22;;;;;;;28.9;16.8;;;;;;;1.64;93.52148;940.2523;;;;
2023/03/04 06:30:47;;;;;;;37.5;20.5;;;;;;;1.89;93.10938;940.253;;;;
2023/03/04 06:33:18;;;;;;;25.9;15.4;;;;;;;2.15;92.02246;940.288;;;;
2023/03/04 06:35:47;;;;;;;20.9;13.1;;;;;;;2.35;90.20605;940.3497;;;;
2023/03/04 06:38:12;;;;;;;22.8;14;;;;;;;2.58;89.41406;940.3692;;;;
2023/03/04 06:40:44;;;;;;;21.9;14.3;;;;;;;2.69;87.13965;940.3964;;;;
2023/03/04 06:43:14;;;;;;;20.7;13.1;;;;;;;2.92;85.88574;940.3968;;;;
2023/03/04 06:45:43;;;;;;;20.4;12.9;;;;;;;3.17;85.13965;940.3405;;;;
2023/03/04 06:48:08;;;;;;;19.7;12;;;;;;;3.49;83.39648;940.4056;;;;
2023/03/04 06:50:33;;;;;;;20.5;13.7;;;;;;;3.6;81.33789;940.3381;;;;
2023/03/04 06:53:04;;;;;;;18.9;13.6;;;;;;;3.49;80.96875;940.4392;;;;
2023/03/04 06:58:37;;;;;;;20.6;14.3;;;;;;;4.01;79.59473;940.3687;;;;
2023/03/04 07:01:02;;;;;;;20.1;14.2;;;;;;;4.6;77.8584;940.4387;;;;
2023/03/04 07:11:33;;;;;;;19.3;13.7;;;;;;;4.86;76.70996;940.4852;;;;
2023/03/04 07:13:50;;;;;;;17.1;11.2;;;;;;;4.79;75.98828;940.5126;;;;
2023/03/04 07:16:15;;;;;;;14.7;10.6;;;;;;;4.86;76.14844;940.5168;;;;
2023/03/04 07:18:46;;;;;;;14;9.1;;;;;;;5.14;75.59863;940.5588;;;;
2023/03/04 07:21:13;;;;;;;11.9;8.9;;;;;;;4.18;77.07324;940.6114;;;;
2023/03/04 07:23:38;;;;;;;12.9;9.5;;;;;;;4.74;77.5;940.5833;;;;
2023/03/04 07:26:05;;;;;;;13.1;9.5;;;;;;;5.26;75.84668;940.5717;;;;
2023/03/04 07:28:30;;;;;;;14.6;9.7;;;;;;;5.67;74.9707;940.5778;;;;
2023/03/04 07:30:55;;;;;;;16.6;9.6;;;;;;;6.1;73.02344;940.4906;;;;
2023/03/04 07:33:20;;;;;;;13.8;9.6;;;;;;;6.45;70.79883;940.5525;;;;
2023/03/04 07:35:50;;;;;;;11.3;8.2;;;;;;;6.33;69.01465;940.5701;;;;
2023/03/04 07:38:20;;;;;;;10.7;8.1;;;;;;;6.8;68.66113;940.5864;;;;
2023/03/04 07:40:46;;;;;;;12.3;7.6;;;;;;;7.16;67.08789;940.6052;;;;
2023/03/04 07:43:14;;;;;;;13.5;7.6;;;;;;;7.51;65.88184;940.5867;;;;
2023/03/04 07:45:43;;;;;;;9.6;6.6;;;;;;;6.74;67.44043;940.6227;;;;
2023/03/04 07:48:08;;;;;;;9;6.1;;;;;;;5.68;70.50195;940.6079;;;;
2023/03/04 07:50:37;;;;;;;12.5;7.5;;;;;;;5.58;72.5957;940.5206;;;;
2023/03/04 07:53:02;;;;;;;10.9;7.6;;;;;;;5.75;72.27441;940.5856;;;;
2023/03/04 07:55:29;;;;;;;11.2;7.7;;;;;;;5.65;72.5625;940.5547;;;;
2023/03/04 07:57:56;;;;;;;11;7.6;;;;;;;5.8;72.80371;940.5461;;;;
2023/03/04 08:00:21;;;;;;;11.6;7.4;;;;;;;5.95;72.43262;940.5513;;;;
2023/03/04 08:02:47;;;;;;;10.2;7.2;;;;;;;6.05;72.12207;940.5656;;;;
2023/03/04 08:05:11;;;;;;;12.7;7.9;;;;;;;6.25;70.94727;940.5031;;;;
2023/03/04 08:07:39;;;;;;;11.8;7.6;;;;;;;6.8;69.73535;940.5284;;;;
2023/03/04 08:10:05;;;;;;;11;7.1;;;;;;;6.86;67.3584;940.4941;;;;
2023/03/04 08:12:34;;;;;;;10.9;6.6;;;;;;;6.38;69.2041;940.4545;;;;
2023/03/04 08:14:59;;;;;;;9.1;6.2;;;;;;;6.78;69.25879;940.4386;;;;
2023/03/04 08:17:31;;;;;;;9.8;7.1;;;;;;;8.16;65.57422;940.3456;;;;
2023/03/04 08:19:57;;;;;;;8.6;5.9;;;;;;;8.33;63.45313;940.375;;;;
2023/03/04 08:22:23;;;;;;;9.8;5.7;;;;;;;8.76;62.52637;940.3171;;;;
2023/03/04 08:24:50;;;;;;;8.5;5.7;;;;;;;8.87;61.12207;940.3697;;;;
2023/03/04 08:27:15;;;;;;;11;5.6;;;;;;;10.09;58.13574;940.2971;;;;
2023/03/04 08:29:42;;;;;;;8.5;5.3;;;;;;;12.43;52.47559;940.2733;;;;
2023/03/04 08:32:07;;;;;;;7.6;5.2;;;;;;;12.24;50.93945;940.2855;;;;
2023/03/04 08:34:33;;;;;;;8;5.2;;;;;;;14.19;47.17285;940.278;;;;
2023/03/04 08:36:59;;;;;;;7.4;5;;;;;;;13.95;45.58301;940.2122;;;;
2023/03/04 08:39:29;;;;;;;7.9;5.3;;;;;;;15;44.78027;940.2852;;;;
2023/03/04 08:41:54;;;;;;;8.6;5.2;;;;;;;16.03;41.82227;940.153;;;;
2023/03/04 08:44:24;;;;;;;7.5;4.9;;;;;;;16.85;39.98926;940.1824;;;;
2023/03/04 08:46:54;;;;;;;6.1;4.4;;;;;;;15.38;42.44141;940.1835;;;;
2023/03/04 08:49:19;;;;;;;7.5;4.5;;;;;;;16.99;39.47949;940.1542;;;;
2023/03/04 08:51:47;;;;;;;6.9;4.8;;;;;;;18.46;37.2627;940.0558;;;;
2023/03/04 08:54:12;;;;;;;7.5;5.2;;;;;;;18.04;35.14844;940.0778;;;;
2023/03/04 08:56:41;;;;;;;7.6;5.3;;;;;;;18.23;36.39551;940.0587;;;;
2023/03/04 08:59:06;;;;;;;7.6;5.2;;;;;;;18.55;36.09668;940.0566;;;;
2023/03/04 09:01:31;;;;;;;8.6;5.1;;;;;;;19.41;35.0957;939.9938;;;;
2023/03/04 09:03:57;;;;;;;11.5;5.2;;;;;;;19.62;34.73926;940.0198;;;;
2023/03/04 09:06:26;;;;;;;7.4;5;;;;;;;20.64;32.48242;939.9215;;;;
2023/03/04 09:08:51;;;;;;;6.6;4.4;;;;;;;19.69;32.55176;939.9458;;;;
2023/03/04 09:11:19;;;;;;;7;5.7;;;;;;;18.17;36.25098;939.8959;;;;
2023/03/04 09:13:44;;;;;;;8.1;5;;;;;;;19.27;34.39746;939.9039;;;;
2023/03/04 09:16:14;;;;;;;7.5;4.9;;;;;;;19.04;35.49707;939.9305;;;;
2023/03/04 09:18:44;;;;;;;6;4.5;;;;;;;19.62;34.23828;939.8592;;;;
2023/03/04 09:21:15;;;;;;;9.9;5.1;;;;;;;20.13;33.70508;939.8639;;;;
2023/03/04 09:23:44;;;;;;;8.3;5.2;;;;;;;19.98;33.49512;939.8074;;;;
2023/03/04 09:26:09;;;;;;;6.1;4.7;;;;;;;20.89;32.34766;939.775;;;;
2023/03/04 09:28:38;;;;;;;7.5;4.5;;;;;;;17.26;37.01172;939.7514;;;;
2023/03/04 09:31:09;;;;;;;8.7;5.3;;;;;;;17.95;36.61621;939.7533;;;;
2023/03/04 09:33:42;;;;;;;7.5;4.8;;;;;;;19.4;33.97559;939.7842;;;;
2023/03/04 09:36:09;;;;;;;7.5;4.8;;;;;;;19.73;33.39551;939.7629;;;;
2023/03/04 09:38:34;;;;;;;7;5.2;;;;;;;20.14;32.95898;939.769;;;;
2023/03/04 09:41:04;;;;;;;6.5;5.1;;;;;;;20.17;33.02051;939.7115;;;;
2023/03/04 09:43:30;;;;;;;7.3;5.1;;;;;;;18.29;36.17969;939.6869;;;;
2023/03/04 09:45:55;;;;;;;8.5;6;;;;;;;17.18;38.47656;939.6669;;;;
2023/03/04 09:48:25;;;;;;;7.5;5.7;;;;;;;16.95;39.43066;939.7042;;;;
2023/03/04 09:50:50;;;;;;;10.2;5.9;;;;;;;16.94;40.36719;939.7156;;;;
2023/03/04 09:53:15;;;;;;;8.1;5.2;;;;;;;16.84;40.49805;939.7394;;;;
2023/03/04 09:55:40;;;;;;;7.2;5.5;;;;;;;16.32;40.4375;939.7352;;;;
2023/03/04 09:58:05;;;;;;;9.3;5.3;;;;;;;16;41.36816;939.757;;;;
2023/03/04 10:00:35;;;;;;;7;5.6;;;;;;;15.89;40.38672;939.7764;;;;
2023/03/04 10:03:02;;;;;;;8.1;5.4;;;;;;;15.07;43.44922;939.7654;;;;
2023/03/04 10:05:32;;;;;;;7.7;5.6;;;;;;;15.11;44.37598;939.7003;;;;
2023/03/04 10:08:03;;;;;;;8.9;5.5;;;;;;;15.89;41.9707;939.6247;;;;
2023/03/04 10:10:32;;;;;;;7.4;5.5;;;;;;;16.05;41.16504;939.6702;;;;
2023/03/04 10:13:04;;;;;;;8;5.6;;;;;;;16.15;41.20898;939.5614;;;;
2023/03/04 10:15:33;;;;;;;9.3;5.9;;;;;;;17.1;39.95313;939.5754;;;;
2023/03/04 10:18:05;;;;;;;8.5;5.9;;;;;;;17.07;38.22363;939.4495;;;;
2023/03/04 10:20:30;;;;;;;10;6.1;;;;;;;16.1;41.36523;939.5508;;;;
2023/03/04 10:22:55;;;;;;;10.2;5.9;;;;;;;15.87;42.41797;939.5413;;;;
2023/03/04 10:25:20;;;;;;;10.1;5.8;;;;;;;16.18;40.51758;939.46;;;;
2023/03/04 10:27:45;;;;;;;10.3;5.7;;;;;;;16.28;41.10547;939.4849;;;;
2023/03/04 10:30:15;;;;;;;8.2;6;;;;;;;16.31;40.4375;939.5208;;;;
2023/03/04 10:32:40;;;;;;;8.6;6.1;;;;;;;16.77;39.73828;939.4666;;;;
2023/03/04 10:35:14;;;;;;;10.3;6.4;;;;;;;15.92;42.1582;939.5039;;;;
2023/03/04 10:37:39;;;;;;;9.8;6.5;;;;;;;16.09;41.42285;939.5147;;;;
2023/03/04 10:40:04;;;;;;;11.2;7.1;;;;;;;15.95;42.08008;939.4129;;;;
2023/03/04 10:42:35;;;;;;;13;7.2;;;;;;;15.75;43.70215;939.4947;;;;
2023/03/04 10:44:54;;;;;;;18.3;8.7;;;;;;;15.61;42.95898;939.4146;;;;
2023/03/04 10:47:19;;;;;;;11.3;8;;;;;;;16.12;42.26953;939.4533;;;;
2023/03/04 10:49:45;;;;;;;12.6;8.2;;;;;;;16.7;40.31152;939.3828;;;;
2023/03/04 10:52:10;;;;;;;11.9;8.3;;;;;;;15.56;43.90234;939.3976;;;;
2023/03/04 10:54:35;;;;;;;11.8;7.7;;;;;;;16.07;42.0918;939.2626;;;;
2023/03/04 10:57:01;;;;;;;13.9;9.1;;;;;;;15.02;43.76758;939.3471;;;;
2023/03/04 10:59:26;;;;;;;16.9;10.5;;;;;;;13.44;47.31055;939.4019;;;;
2023/03/04 11:01:54;;;;;;;17.9;10.7;;;;;;;14.02;45.50879;939.3286;;;;
2023/03/04 11:04:19;;;;;;;20.1;11.5;;;;;;;14.06;46.49121;939.351;;;;
2023/03/04 11:06:45;;;;;;;19.2;11.2;;;;;;;14.64;44.82422;939.2667;;;;
2023/03/04 11:09:10;;;;;;;15.7;11;;;;;;;15.06;43.89941;939.2562;;;;
2023/03/04 11:11:41;;;;;;;19;11.9;;;;;;;14.56;44.5166;939.2355;;;;
2023/03/04 11:14:03;;;;;;;17.6;12.2;;;;;;;14.18;47.20605;939.2528;;;;
2023/03/04 11:16:33;;;;;;;19.7;14;;;;;;;14.87;44.68652;939.2194;;;;
2023/03/04 11:18:59;;;;;;;19.9;13.7;;;;;;;15.4;43.36719;939.2029;;;;
2023/03/04 11:21:24;;;;;;;23.4;15.8;;;;;;;14.35;46.16602;939.2463;;;;
2023/03/04 11:23:50;;;;;;;21.9;14;;;;;;;15.15;44.36914;939.1426;;;;
2023/03/04 11:26:15;;;;;;;22.8;14.1;;;;;;;16.03;43.52246;939.0823;;;;
2023/03/04 11:28:41;;;;;;;20.7;13.4;;;;;;;16.67;41.11914;939.0457;;;;
2023/03/04 11:31:12;;;;;;;22.2;15.2;;;;;;;17.69;39.38086;938.9897;;;;
2023/03/04 11:33:40;;;;;;;23.4;15.5;;;;;;;17.45;39.76563;938.9222;;;;
2023/03/04 11:36:03;;;;;;;21.9;15.9;;;;;;;18.28;39.3291;938.9734;;;;
2023/03/04 11:38:29;;;;;;;23.8;16.9;;;;;;;16.18;41.87109;938.9192;;;;
2023/03/04 11:40:56;;;;;;;24.8;17.5;;;;;;;16;42.62891;938.9682;;;;
2023/03/04 11:43:25;;;;;;;24.2;16.6;;;;;;;17.51;39.91016;938.9075;;;;
2023/03/04 11:45:50;;;;;;;26.9;17.4;;;;;;;18.44;37.72754;938.8973;;;;
2023/03/04 11:48:17;;;;;;;23.3;17.1;;;;;;;18.7;37.2959;938.7764;;;;
2023/03/04 11:50:46;;;;;;;24.8;17;;;;;;;19.02;36.99707;938.7303;;;;
2023/03/04 11:53:11;;;;;;;27.3;17.1;;;;;;;19.54;35.64258;938.8081;;;;
2023/03/04 11:55:37;;;;;;;25.1;17.4;;;;;;;20.2;34.37598;938.7792;;;;
2023/03/04 11:58:07;;;;;;;23.2;15.9;;;;;;;20.81;34.08496;938.7714;;;;
2023/03/04 12:00:36;;;;;;;28;19.7;;;;;;;19.75;34.72656;938.7469;;;;
2023/03/04 12:03:08;;;;;;;28.1;18.9;;;;;;;19.81;35.38379;938.7527;;;;
2023/03/04 12:05:34;;;;;;;24.8;16.9;;;;;;;21.35;33.02637;938.6997;;;;
2023/03/04 12:08:02;;;;;;;26.1;18.2;;;;;;;20.44;33.79883;938.467;;;;
2023/03/04 12:10:27;;;;;;;29;20.8;;;;;;;20.23;33.08203;938.6124;;;;
2023/03/04 12:12:53;;;;;;;27.1;19.2;;;;;;;18.77;37.66211;938.5757;;;;
2023/03/04 12:15:18;;;;;;;26.8;17.8;;;;;;;19.14;35.81934;938.6672;;;;
2023/03/04 12:17:43;;;;;;;26.7;18.4;;;;;;;19.89;35.26172;938.5584;;;;
2023/03/04 12:20:16;;;;;;;28.2;18.1;;;;;;;20.52;34.03906;938.5295;;;;
2023/03/04 12:22:46;;;;;;;28.3;18.2;;;;;;;20.05;34.64453;938.4584;;;;
2023/03/04 12:25:11;;;;;;;25.7;18.1;;;;;;;19.71;35.41113;938.5303;;;;
2023/03/04 12:27:43;;;;;;;26.7;18;;;;;;;18.84;36.42285;938.3865;;;;
2023/03/04 12:30:13;;;;;;;30.1;20.4;;;;;;;16.59;40.41699;938.3899;;;;
2023/03/04 12:32:38;;;;;;;28.5;19.6;;;;;;;15.43;44.38574;938.4414;;;;
2023/03/04 12:35:03;;;;;;;29.1;20.5;;;;;;;15.94;42.70313;938.3602;;;;
2023/03/04 12:37:33;;;;;;;30.4;20.3;;;;;;;16.71;40.85645;938.3736;;;;
2023/03/04 12:40:01;;;;;;;30.6;20.7;;;;;;;15.84;43.53809;938.3499;;;;
2023/03/04 12:42:34;;;;;;;30.4;19.3;;;;;;;16.75;41.31152;938.25;;;;
2023/03/04 12:45:02;;;;;;;28.6;20.3;;;;;;;16.26;42.80469;938.2516;;;;
2023/03/04 12:47:27;;;;;;;29.8;20.5;;;;;;;15.98;42.71973;938.1949;;;;
2023/03/04 12:49:52;;;;;;;31.8;21;;;;;;;15.64;42.54688;938.1647;;;;
2023/03/04 12:52:22;;;;;;;35.5;21.8;;;;;;;15.46;44.08887;938.2316;;;;
2023/03/04 12:54:47;;;;;;;32.9;21.5;;;;;;;15.43;44.70898;938.1244;;;;
2023/03/04 12:57:15;;;;;;;31.9;20.9;;;;;;;16.4;42.44824;938.1671;;;;
2023/03/04 12:59:40;;;;;;;33.9;21.9;;;;;;;16.19;42.3125;938.1397;;;;
2023/03/04 13:02:06;;;;;;;32.3;21;;;;;;;16.92;40.57422;938.1691;;;;
2023/03/04 13:04:35;;;;;;;30.7;21;;;;;;;17.02;40.31738;938.2216;;;;
2023/03/04 13:07:06;;;;;;;33.3;21.4;;;;;;;16.96;40.86816;938.1644;;;;
2023/03/04 13:09:31;;;;;;;30.5;21.5;;;;;;;16.14;42.61914;938.1404;;;;
2023/03/04 13:11:57;;;;;;;31.3;21.6;;;;;;;16.79;40.67871;938.1361;;;;
2023/03/04 13:14:22;;;;;;;31.2;21.5;;;;;;;17.36;39.58301;938.0989;;;;
2023/03/04 13:16:47;;;;;;;34;22.1;;;;;;;15.92;43.18652;938.0897;;;;
2023/03/04 13:19:12;;;;;;;34.5;22.1;;;;;;;16.04;42.41309;938.1086;;;;
2023/03/04 13:21:40;;;;;;;34.1;22.4;;;;;;;15.86;44.31445;938.0815;;;;
2023/03/04 13:24:05;;;;;;;31;21.9;;;;;;;16.8;41.44336;938.0467;;;;
2023/03/04 13:26:32;;;;;;;34.5;23;;;;;;;16.17;41.78906;937.9833;;;;
2023/03/04 13:28:57;;;;;;;34.9;23.4;;;;;;;15.72;43.27148;938.0322;;;;
2023/03/04 13:31:23;;;;;;;33.6;22.8;;;;;;;16.49;42.03906;938.0103;;;;
2023/03/04 13:33:51;;;;;;;35.9;23.8;;;;;;;15;45.63477;938.0109;;;;
2023/03/04 13:36:14;;;;;;;36.2;23.8;;;;;;;15.32;44.31641;937.9678;;;;
2023/03/04 13:38:45;;;;;;;33;23;;;;;;;14.61;46.2041;938.0244;;;;
2023/03/04 13:41:16;;;;;;;37.5;24.8;;;;;;;15.23;43.91406;937.9695;;;;
2023/03/04 13:43:41;;;;;;;35.3;23.7;;;;;;;15.46;43.02539;937.913;;;;
2023/03/04 13:46:06;;;;;;;36.4;24.2;;;;;;;15.35;43.41895;937.9659;;;;
2023/03/04 13:48:36;;;;;;;33.2;22.9;;;;;;;15.81;42.32031;937.9269;;;;
2023/03/04 13:50:59;;;;;;;35.3;22.9;;;;;;;15.94;42.27539;937.9409;;;;
2023/03/04 13:53:24;;;;;;;36.7;24.4;;;;;;;14.89;43.96289;937.8899;;;;
2023/03/04 13:55:53;;;;;;;35.4;23.3;;;;;;;15.28;43.54004;937.9666;;;;
2023/03/04 13:58:19;;;;;;;35.9;24.1;;;;;;;15.63;42.60352;937.9392;;;;
2023/03/04 14:00:43;;;;;;;35.9;24.7;;;;;;;15.86;42.37207;937.9153;;;;
2023/03/04 14:03:15;;;;;;;36;24.8;;;;;;;13.95;46.30664;937.9658;;;;
2023/03/04 14:05:43;;;;;;;37.2;25.3;;;;;;;12.63;48.88672;937.9363;;;;
2023/03/04 14:08:11;;;;;;;38.3;26.5;;;;;;;12.56;50.03613;937.868;;;;
2023/03/04 14:10:36;;;;;;;38.1;25.5;;;;;;;13.77;48.42676;937.9414;;;;
2023/03/04 14:13:08;;;;;;;34.2;24.7;;;;;;;14.41;45.53906;937.9361;;;;
2023/03/04 14:15:34;;;;;;;37.3;25.9;;;;;;;13.06;48.80762;937.9202;;;;
2023/03/04 14:18:00;;;;;;;41.4;26.6;;;;;;;12.92;49.37793;937.9231;;;;
2023/03/04 14:20:25;;;;;;;41.5;26.7;;;;;;;13.49;48.51074;937.9059;;;;
2023/03/04 14:22:50;;;;;;;40.7;26.2;;;;;;;12.86;49.87598;937.844;;;;
2023/03/04 14:25:23;;;;;;;40.2;27;;;;;;;12.54;49.65527;937.9055;;;;
2023/03/04 14:27:48;;;;;;;39.1;27;;;;;;;12.35;49.66797;937.9041;;;;
2023/03/04 14:30:21;;;;;;;37.8;26;;;;;;;13.33;47.83789;937.9004;;;;
2023/03/04 14:32:46;;;;;;;36.8;24.7;;;;;;;14.24;45.62305;937.865;;;;
2023/03/04 14:35:18;;;;;;;38;26.1;;;;;;;14.17;45.25977;937.837;;;;
2023/03/04 14:37:44;;;;;;;38.2;26.4;;;;;;;14.48;46.04102;937.7784;;;;
2023/03/04 14:40:15;;;;;;;37.1;24.9;;;;;;;14.69;45.33594;937.8543;;;;
2023/03/04 14:42:41;;;;;;;41.1;26.5;;;;;;;14.03;46.2002;937.8;;;;
2023/03/04 14:45:06;;;;;;;35.8;24.4;;;;;;;14.43;45.81738;937.8289;;;;
2023/03/04 14:47:31;;;;;;;38.2;26.5;;;;;;;14.84;44.1416;937.7509;;;;
2023/03/04 14:49:56;;;;;;;37;25.6;;;;;;;14.41;45.21484;937.7967;;;;
2023/03/04 14:52:21;;;;;;;39.3;26.4;;;;;;;13.61;46.52441;937.8272;;;;
2023/03/04 14:54:50;;;;;;;40.7;25.7;;;;;;;14.12;46.18652;937.8373;;;;
2023/03/04 14:57:17;;;;;;;38.5;26.1;;;;;;;14.07;46.37793;937.7598;;;;
2023/03/04 14:59:42;;;;;;;37.9;24.9;;;;;;;14.36;45.14063;937.7673;;;;
2023/03/04 15:02:12;;;;;;;41.7;27.2;;;;;;;13.67;46.84082;937.7321;;;;
2023/03/04 15:04:38;;;;;;;35.3;24.7;;;;;;;13.29;48.08691;937.7157;;;;
2023/03/04 15:07:02;;;;;;;40.5;26.2;;;;;;;12.71;49.06738;937.6287;;;;
2023/03/04 15:09:28;;;;;;;38.5;25.7;;;;;;;12.41;50.00781;937.6472;;;;
2023/03/04 15:11:56;;;;;;;38.7;25.5;;;;;;;11.43;52.97266;937.6124;;;;
2023/03/04 15:14:21;;;;;;;40.3;26.6;;;;;;;11.85;51.74316;937.5287;;;;
2023/03/04 15:16:50;;;;;;;37.6;25.4;;;;;;;11.54;52.95215;937.6033;;;;
2023/03/04 15:19:15;;;;;;;38.5;26.2;;;;;;;11.45;53.27246;937.6013;;;;
2023/03/04 15:21:44;;;;;;;39.7;27;;;;;;;10.88;54.40332;937.6105;;;;
2023/03/04 15:24:10;;;;;;;39.7;25.6;;;;;;;10.75;55.32324;937.6571;;;;
2023/03/04 15:26:36;;;;;;;38.9;26.6;;;;;;;10.14;57.23047;937.7119;;;;
2023/03/04 15:29:01;;;;;;;37.4;25.3;;;;;;;10.23;57.50391;937.6943;;;;
2023/03/04 15:31:26;;;;;;;38.7;25.9;;;;;;;10.3;57.19434;937.675;;;;
2023/03/04 15:33:53;;;;;;;45.5;26.8;;;;;;;10.4;57.36621;937.6433;;;;
2023/03/04 15:36:18;;;;;;;39.3;26.2;;;;;;;10.57;56.38477;937.6905;;;;